createdAt,value
2017-08-19T00:02:03.264Z,14.50
2017-08-19T00:04:30.703Z,11.80
2017-08-19T00:06:58.095Z,11.73
2017-08-19T00:09:25.486Z,10.70
2017-08-19T00:11:53.035Z,10.93
2017-08-19T00:14:20.431Z,11.37
2017-08-19T00:16:47.828Z,12.33
2017-08-19T00:19:15.475Z,12.60
2017-08-19T00:21:42.870Z,11.27
2017-08-19T00:24:10.263Z,11.87
2017-08-19T00:26:37.847Z,12.07
2017-08-19T00:29:05.243Z,12.20
2017-08-19T00:31:32.647Z,14.10
2017-08-19T00:34:00.072Z,11.33
2017-08-19T00:36:27.469Z,11.80
2017-08-19T00:38:54.874Z,11.00
2017-08-19T00:41:22.380Z,11.80
2017-08-19T00:43:49.783Z,11.20
2017-08-19T00:46:17.174Z,13.03
2017-08-19T00:48:44.586Z,13.97
2017-08-19T00:51:11.984Z,12.37
2017-08-19T00:53:39.379Z,10.90
2017-08-19T00:56:06.931Z,13.07
2017-08-19T00:58:34.333Z,13.13
2017-08-19T01:01:01.734Z,13.63
2017-08-19T01:03:29.141Z,12.93
2017-08-19T01:05:56.538Z,13.97
2017-08-19T01:08:23.936Z,12.80
2017-08-19T01:10:51.792Z,13.30
2017-08-19T01:13:19.186Z,12.27
2017-08-19T01:15:46.582Z,13.50
2017-08-19T01:18:14.006Z,12.93
2017-08-19T01:20:41.406Z,15.53
2017-08-19T01:23:08.802Z,13.07
2017-08-19T01:25:48.076Z,11.87
2017-08-19T01:28:15.470Z,12.70
2017-08-19T01:30:42.874Z,13.17
2017-08-19T01:33:10.426Z,11.87
2017-08-19T01:35:38.545Z,12.60
2017-08-19T01:38:05.946Z,11.80
2017-08-19T01:40:33.354Z,12.40
2017-08-19T01:43:00.746Z,12.13
2017-08-19T01:45:28.146Z,12.60
2017-08-19T01:47:55.570Z,13.07
2017-08-19T01:50:22.964Z,16.83
2017-08-19T01:52:50.359Z,13.93
2017-08-19T01:55:17.806Z,12.53
2017-08-19T01:57:45.203Z,11.70
2017-08-19T02:00:12.614Z,12.33
2017-08-19T02:02:40.166Z,11.70
2017-08-19T02:05:07.573Z,11.83
2017-08-19T02:07:34.957Z,11.30
2017-08-19T02:10:02.467Z,12.17
2017-08-19T02:12:29.867Z,12.30
2017-08-19T02:14:57.267Z,11.57
2017-08-19T02:17:25.004Z,11.77
2017-08-19T02:19:52.408Z,12.30
2017-08-19T02:22:19.802Z,12.20
2017-08-19T02:24:47.210Z,12.40
2017-08-19T02:27:14.607Z,11.93
2017-08-19T02:29:42.008Z,11.47
2017-08-19T02:32:09.412Z,10.97
2017-08-19T02:34:36.807Z,10.70
2017-08-19T02:37:04.202Z,11.07
2017-08-19T02:39:31.712Z,10.97
2017-08-19T02:41:59.108Z,12.27
2017-08-19T02:44:26.514Z,11.10
2017-08-19T02:46:53.966Z,11.43
2017-08-19T02:49:21.366Z,11.27
2017-08-19T02:51:48.758Z,10.90
2017-08-19T02:54:16.211Z,11.20
2017-08-19T02:56:43.610Z,12.40
2017-08-19T02:59:11.014Z,11.50
2017-08-19T03:01:38.523Z,12.03
2017-08-19T03:04:05.918Z,12.80
2017-08-19T03:06:33.326Z,12.00
2017-08-19T03:09:00.828Z,11.83
2017-08-19T03:11:28.235Z,12.57
2017-08-19T03:13:55.630Z,12.67
2017-08-19T03:16:23.139Z,13.03
2017-08-19T03:18:50.543Z,15.10
2017-08-19T03:21:17.931Z,12.27
2017-08-19T03:23:45.371Z,16.50
2017-08-19T03:26:12.770Z,12.27
2017-08-19T03:28:40.167Z,18.30
2017-08-19T03:31:07.720Z,11.70
2017-08-19T03:33:35.110Z,13.80
2017-08-19T03:36:02.511Z,11.57
2017-08-19T03:38:30.062Z,14.10
2017-08-19T03:40:57.458Z,12.43
2017-08-19T03:43:24.870Z,11.47
2017-08-19T03:45:52.378Z,11.90
2017-08-19T03:48:19.774Z,11.93
2017-08-19T03:50:47.174Z,17.17
2017-08-19T03:53:14.609Z,12.70
2017-08-19T03:55:42.006Z,18.53
2017-08-19T03:58:09.410Z,10.70
2017-08-19T04:00:36.959Z,11.20
2017-08-19T04:03:04.354Z,11.27
2017-08-19T04:05:31.746Z,11.90
2017-08-19T04:07:59.154Z,11.17
2017-08-19T04:10:26.548Z,10.97
2017-08-19T04:12:53.943Z,11.40
2017-08-19T04:15:21.496Z,11.07
2017-08-19T04:17:48.892Z,12.57
2017-08-19T04:20:16.285Z,12.50
2017-08-19T04:22:43.750Z,11.33
2017-08-19T04:25:11.148Z,12.07
2017-08-19T04:27:38.555Z,12.87
2017-08-19T04:30:06.166Z,12.80
2017-08-19T04:32:33.570Z,14.10
2017-08-19T04:35:00.971Z,13.37
2017-08-19T04:37:28.534Z,12.33
2017-08-19T04:39:55.938Z,11.97
2017-08-19T04:42:23.345Z,12.10
2017-08-19T04:44:50.767Z,11.57
2017-08-19T04:47:18.182Z,14.00
2017-08-19T04:49:45.575Z,10.83
2017-08-19T04:52:13.118Z,11.23
2017-08-19T04:54:40.520Z,11.30
2017-08-19T04:57:07.926Z,12.80
2017-08-19T04:59:35.346Z,13.17
2017-08-19T05:02:02.743Z,11.13
2017-08-19T05:04:30.152Z,17.63
2017-08-19T05:06:57.911Z,10.67
2017-08-19T05:09:25.310Z,10.07
2017-08-19T05:11:52.706Z,10.40
2017-08-19T05:14:20.255Z,10.80
2017-08-19T05:16:47.666Z,11.07
2017-08-19T05:19:15.055Z,9.27
2017-08-19T05:21:42.603Z,10.23
2017-08-19T05:24:09.994Z,16.60
2017-08-19T05:26:37.406Z,10.17
2017-08-19T05:29:04.913Z,9.30
2017-08-19T05:31:32.306Z,10.20
2017-08-19T05:33:59.703Z,11.67
2017-08-19T05:36:27.242Z,9.33
2017-08-19T05:38:54.638Z,12.13
2017-08-19T05:41:22.027Z,10.00
2017-08-19T05:43:49.466Z,10.60
2017-08-19T05:46:16.871Z,10.67
2017-08-19T05:48:44.266Z,12.17
2017-08-19T05:51:11.811Z,11.80
2017-08-19T05:53:39.204Z,12.43
2017-08-19T05:56:06.590Z,9.83
2017-08-19T05:58:34.436Z,10.30
2017-08-19T06:01:01.826Z,13.30
2017-08-19T06:03:29.224Z,10.40
2017-08-19T06:05:56.623Z,19.60
2017-08-19T06:08:24.010Z,13.13
2017-08-19T06:10:51.411Z,12.07
2017-08-19T06:13:18.958Z,12.10
2017-08-19T06:15:46.346Z,9.47
2017-08-19T06:18:13.731Z,9.03
2017-08-19T06:20:41.337Z,10.50
2017-08-19T06:23:08.732Z,12.27
2017-08-19T06:25:36.130Z,15.77
2017-08-19T06:28:03.628Z,9.30
2017-08-19T06:30:31.018Z,13.73
2017-08-19T06:32:58.406Z,9.93
2017-08-19T06:35:26.290Z,11.40
2017-08-19T06:37:53.688Z,11.40
2017-08-19T06:40:21.074Z,10.50
2017-08-19T06:42:48.870Z,11.53
2017-08-19T06:45:16.266Z,12.03
2017-08-19T06:47:43.671Z,11.67
2017-08-19T06:50:11.226Z,9.57
2017-08-19T06:52:38.614Z,9.07
2017-08-19T06:55:06.006Z,11.47
2017-08-19T06:57:33.432Z,11.97
2017-08-19T07:00:00.819Z,9.10
2017-08-19T07:02:28.209Z,11.40
2017-08-19T07:04:55.750Z,10.67
2017-08-19T07:07:23.134Z,9.33
2017-08-19T07:09:50.534Z,9.90
2017-08-19T07:12:18.075Z,8.07
2017-08-19T07:14:45.466Z,10.80
2017-08-19T07:17:12.867Z,9.07
2017-08-19T07:19:40.370Z,12.50
2017-08-19T07:22:07.765Z,12.23
2017-08-19T07:24:35.154Z,8.43
2017-08-19T07:27:02.583Z,10.40
2017-08-19T07:29:29.976Z,11.57
2017-08-19T07:31:57.371Z,12.20
2017-08-19T07:34:24.875Z,13.77
2017-08-19T07:36:52.266Z,10.60
2017-08-19T07:39:19.658Z,12.20
2017-08-19T07:41:47.062Z,14.67
2017-08-19T07:44:14.455Z,12.40
2017-08-19T07:46:41.855Z,12.47
2017-08-19T07:49:09.271Z,13.33
2017-08-19T07:51:36.672Z,12.63
2017-08-19T07:54:04.047Z,9.70
2017-08-19T07:56:31.567Z,13.03
2017-08-19T07:58:58.966Z,12.30
2017-08-19T08:01:26.354Z,14.17
2017-08-19T08:03:53.783Z,12.40
2017-08-19T08:06:21.182Z,10.60
2017-08-19T08:08:48.566Z,8.43
2017-08-19T08:11:15.982Z,13.27
2017-08-19T08:13:43.366Z,8.40
2017-08-19T08:16:10.762Z,8.13
2017-08-19T08:18:38.682Z,11.03
2017-08-19T08:21:06.074Z,12.60
2017-08-19T08:23:33.488Z,14.87
2017-08-19T08:26:01.055Z,12.53
2017-08-19T08:28:28.452Z,11.73
2017-08-19T08:30:55.843Z,17.07
2017-08-19T08:33:23.258Z,11.17
2017-08-19T08:35:50.650Z,9.93
2017-08-19T08:38:18.038Z,11.03
2017-08-19T08:40:45.735Z,8.17
2017-08-19T08:43:13.130Z,10.23
2017-08-19T08:45:40.523Z,14.17
2017-08-19T08:48:07.962Z,8.27
2017-08-19T08:50:35.351Z,8.90
2017-08-19T08:53:02.739Z,13.30
2017-08-19T08:55:30.542Z,15.20
2017-08-19T08:57:57.944Z,14.57
2017-08-19T09:00:25.332Z,8.30
2017-08-19T09:02:52.890Z,10.23
2017-08-19T09:05:20.288Z,12.83
2017-08-19T09:07:47.682Z,13.30
2017-08-19T09:10:15.496Z,11.77
2017-08-19T09:12:42.889Z,12.40
2017-08-19T09:15:10.283Z,12.73
2017-08-19T09:17:37.718Z,12.20
2017-08-19T09:20:05.111Z,12.53
2017-08-19T09:22:32.510Z,10.70
2017-08-19T09:25:00.019Z,13.53
2017-08-19T09:27:27.406Z,8.80
2017-08-19T09:29:54.794Z,9.40
2017-08-19T09:32:22.345Z,15.80
2017-08-19T09:34:49.758Z,13.03
2017-08-19T09:37:17.152Z,10.40
2017-08-19T09:39:44.618Z,10.50
2017-08-19T09:42:12.019Z,8.87
2017-08-19T09:44:39.409Z,9.80
2017-08-19T09:47:06.830Z,10.83
2017-08-19T09:49:34.227Z,9.30
2017-08-19T09:52:01.624Z,10.53
2017-08-19T09:54:29.326Z,12.37
2017-08-19T09:56:56.714Z,12.57
2017-08-19T09:59:24.106Z,8.90
2017-08-19T10:01:51.646Z,9.50
2017-08-19T10:04:19.034Z,9.03
2017-08-19T10:06:46.426Z,9.00
2017-08-19T10:09:25.599Z,9.20
2017-08-19T10:11:52.987Z,8.20
2017-08-19T10:14:20.374Z,8.43
2017-08-19T10:16:47.931Z,8.70
2017-08-19T10:19:15.315Z,9.33
2017-08-19T10:21:42.719Z,9.93
2017-08-19T10:24:10.158Z,10.53
2017-08-19T10:26:37.544Z,8.30
2017-08-19T10:29:04.931Z,9.03
2017-08-19T10:31:32.682Z,11.27
2017-08-19T10:34:00.076Z,9.63
2017-08-19T10:36:27.457Z,8.00
2017-08-19T10:38:55.222Z,9.73
2017-08-19T10:41:22.610Z,8.70
2017-08-19T10:43:50.011Z,12.00
2017-08-19T10:46:17.514Z,10.27
2017-08-19T10:48:44.898Z,8.83
2017-08-19T10:51:12.298Z,9.10
2017-08-19T10:53:39.743Z,10.67
2017-08-19T10:56:07.126Z,8.90
2017-08-19T10:58:34.516Z,8.80
2017-08-19T11:01:02.342Z,8.93
2017-08-19T11:03:29.726Z,8.53
2017-08-19T11:05:57.114Z,8.57
2017-08-19T11:08:24.666Z,10.23
2017-08-19T11:10:52.046Z,9.30
2017-08-19T11:13:19.442Z,9.10
2017-08-19T11:15:46.854Z,8.33
2017-08-19T11:18:14.267Z,9.13
2017-08-19T11:20:41.642Z,7.90
2017-08-19T11:23:09.067Z,11.87
2017-08-19T11:25:37.083Z,9.70
2017-08-19T11:28:04.495Z,8.23
2017-08-19T11:30:32.030Z,9.10
2017-08-19T11:32:59.424Z,8.53
2017-08-19T11:35:26.819Z,8.40
2017-08-19T11:37:54.234Z,9.23
2017-08-19T11:40:21.634Z,8.80
2017-08-19T11:42:49.023Z,8.50
2017-08-19T11:45:16.431Z,11.30
2017-08-19T11:47:43.821Z,8.33
2017-08-19T11:50:11.210Z,8.40
2017-08-19T11:52:38.610Z,7.67
2017-08-19T11:55:06.000Z,8.10
2017-08-19T11:57:33.395Z,8.57
2017-08-19T12:00:01.109Z,8.77
2017-08-19T12:02:28.503Z,7.87
2017-08-19T12:04:55.894Z,9.27
2017-08-19T12:07:23.693Z,8.57
2017-08-19T12:09:51.090Z,8.37
2017-08-19T12:12:18.483Z,10.40
2017-08-19T12:14:45.915Z,8.90
2017-08-19T12:17:13.301Z,8.23
2017-08-19T12:19:40.698Z,9.73
2017-08-19T12:22:08.642Z,9.13
2017-08-19T12:24:36.043Z,7.83
2017-08-19T12:27:03.427Z,8.27
2017-08-19T12:29:30.827Z,7.90
2017-08-19T12:31:58.213Z,7.90
2017-08-19T12:34:25.602Z,8.23
2017-08-19T12:36:53.178Z,8.23
2017-08-19T12:39:20.571Z,8.33
2017-08-19T12:41:47.962Z,7.90
2017-08-19T12:44:15.758Z,7.97
2017-08-19T12:46:43.142Z,8.70
2017-08-19T12:49:10.529Z,8.30
2017-08-19T12:51:38.092Z,8.17
2017-08-19T12:54:05.484Z,8.90
2017-08-19T12:56:32.878Z,8.73
2017-08-19T12:59:00.500Z,8.50
2017-08-19T13:01:27.882Z,9.00
2017-08-19T13:03:55.278Z,9.13
2017-08-19T13:06:22.706Z,8.17
2017-08-19T13:08:50.093Z,7.90
2017-08-19T13:11:17.495Z,8.10
2017-08-19T13:13:45.046Z,9.47
2017-08-19T13:16:12.426Z,8.80
2017-08-19T13:18:39.810Z,8.77
2017-08-19T13:21:07.412Z,8.73
2017-08-19T13:23:34.803Z,8.73
2017-08-19T13:26:02.186Z,9.20
2017-08-19T13:28:29.687Z,9.17
2017-08-19T13:30:57.128Z,9.17
2017-08-19T13:33:24.498Z,8.47
2017-08-19T13:35:51.899Z,8.87
2017-08-19T13:38:19.299Z,9.17
2017-08-19T13:40:46.699Z,8.33
2017-08-19T13:43:14.199Z,8.63
2017-08-19T13:45:41.583Z,8.83
2017-08-19T13:48:08.967Z,9.33
2017-08-19T13:50:36.374Z,8.87
2017-08-19T13:53:03.762Z,9.23
2017-08-19T13:55:31.158Z,9.30
2017-08-19T13:57:58.659Z,9.07
2017-08-19T14:00:26.049Z,8.57
2017-08-19T14:02:53.442Z,9.57
2017-08-19T14:05:21.234Z,9.57
2017-08-19T14:07:48.639Z,7.80
2017-08-19T14:10:16.019Z,8.90
2017-08-19T14:12:43.418Z,9.07
2017-08-19T14:15:10.807Z,9.07
2017-08-19T14:17:38.190Z,8.73
2017-08-19T14:20:05.978Z,8.70
2017-08-19T14:22:33.367Z,8.47
2017-08-19T14:25:00.754Z,8.77
2017-08-19T14:27:28.294Z,8.73
2017-08-19T14:29:56.544Z,9.53
2017-08-19T14:32:23.960Z,9.60
2017-08-19T14:34:51.358Z,9.53
2017-08-19T14:37:18.746Z,9.47
2017-08-19T14:39:46.135Z,9.30
2017-08-19T14:42:13.535Z,9.07
2017-08-19T14:44:40.933Z,9.10
2017-08-19T14:47:08.326Z,9.43
2017-08-19T14:49:35.730Z,9.90
2017-08-19T14:52:03.131Z,10.70
2017-08-19T14:54:30.524Z,11.13
2017-08-19T14:56:57.943Z,13.67
2017-08-19T14:59:25.339Z,12.90
2017-08-19T15:01:52.738Z,11.93
2017-08-19T15:04:20.626Z,12.00
2017-08-19T15:06:48.025Z,12.53
2017-08-19T15:09:15.418Z,13.40
2017-08-19T15:11:42.926Z,12.00
2017-08-19T15:14:10.323Z,12.37
2017-08-19T15:16:37.724Z,10.73
2017-08-19T15:19:05.122Z,10.80
2017-08-19T15:21:32.539Z,11.67
2017-08-19T15:23:59.930Z,11.10
2017-08-19T15:26:27.490Z,12.07
2017-08-19T15:28:54.901Z,12.43
2017-08-19T15:31:22.306Z,12.27
2017-08-19T15:33:49.810Z,13.20
2017-08-19T15:36:17.210Z,13.50
2017-08-19T15:38:44.614Z,15.20
2017-08-19T15:41:12.167Z,15.73
2017-08-19T15:43:39.562Z,16.73
2017-08-19T15:46:06.968Z,16.73
2017-08-19T15:48:34.514Z,13.20
2017-08-19T15:51:01.910Z,12.37
2017-08-19T15:53:29.311Z,11.30
2017-08-19T15:55:56.866Z,12.33
2017-08-19T15:58:24.262Z,9.80
2017-08-19T16:00:51.659Z,12.10
2017-08-19T16:03:19.214Z,12.40
2017-08-19T16:05:46.626Z,11.93
2017-08-19T16:08:14.020Z,12.17
2017-08-19T16:10:41.571Z,12.13
2017-08-19T16:13:08.969Z,12.80
2017-08-19T16:15:36.375Z,11.60
2017-08-19T16:18:03.974Z,12.97
2017-08-19T16:20:31.365Z,11.90
2017-08-19T16:22:58.759Z,11.87
2017-08-19T16:25:26.158Z,10.87
2017-08-19T16:27:53.563Z,11.43
2017-08-19T16:30:20.955Z,10.80
2017-08-19T16:32:48.691Z,12.17
2017-08-19T16:35:16.087Z,12.00
2017-08-19T16:37:43.502Z,11.37
2017-08-19T16:40:10.947Z,10.23
2017-08-19T16:42:38.347Z,11.00
2017-08-19T16:45:05.744Z,10.23
2017-08-19T16:47:33.163Z,11.80
2017-08-19T16:50:00.556Z,11.17
2017-08-19T16:52:27.950Z,10.30
2017-08-19T16:54:55.508Z,10.87
2017-08-19T16:57:22.908Z,12.93
2017-08-19T16:59:50.307Z,13.57
2017-08-19T17:02:17.735Z,10.70
2017-08-19T17:04:45.122Z,10.77
2017-08-19T17:07:12.525Z,10.70
2017-08-19T17:09:40.136Z,11.07
2017-08-19T17:12:07.530Z,12.03
2017-08-19T17:14:34.926Z,11.13
2017-08-19T17:17:02.430Z,11.50
2017-08-19T17:19:29.829Z,11.93
2017-08-19T17:21:57.218Z,9.97
2017-08-19T17:24:24.624Z,10.90
2017-08-19T17:26:52.018Z,11.00
2017-08-19T17:29:19.413Z,10.87
2017-08-19T17:31:47.251Z,10.17
2017-08-19T17:34:14.634Z,9.60
2017-08-19T17:36:42.026Z,9.70
2017-08-19T17:39:09.435Z,12.60
2017-08-19T17:41:36.823Z,10.40
2017-08-19T17:44:04.214Z,10.20
2017-08-19T17:46:31.786Z,9.90
2017-08-19T17:48:59.180Z,11.37
2017-08-19T17:51:26.591Z,19.77
2017-08-19T17:53:54.030Z,20.53
2017-08-19T17:56:21.436Z,11.67
2017-08-19T17:58:48.832Z,15.70
2017-08-19T18:01:16.740Z,12.47
2017-08-19T18:03:44.134Z,14.10
2017-08-19T18:06:11.533Z,12.47
2017-08-19T18:08:39.113Z,12.70
2017-08-19T18:11:06.508Z,11.87
2017-08-19T18:13:33.902Z,11.30
2017-08-19T18:16:01.323Z,12.83
2017-08-19T18:18:28.715Z,25.80
2017-08-19T18:20:56.111Z,15.93
2017-08-19T18:23:23.658Z,11.80
2017-08-19T18:25:51.055Z,11.67
2017-08-19T18:28:18.452Z,11.60
2017-08-19T18:30:46.210Z,12.50
2017-08-19T18:33:13.613Z,10.87
2017-08-19T18:35:41.011Z,11.87
2017-08-19T18:38:08.599Z,10.00
2017-08-19T18:40:36.000Z,11.87
2017-08-19T18:43:03.400Z,12.00
2017-08-19T18:45:30.814Z,10.97
2017-08-19T18:47:58.211Z,11.00
2017-08-19T18:50:25.615Z,10.60
2017-08-19T18:52:53.042Z,11.40
2017-08-19T18:55:20.435Z,12.13
2017-08-19T18:57:47.830Z,11.13
2017-08-19T19:00:15.378Z,11.60
2017-08-19T19:02:42.766Z,10.60
2017-08-19T19:05:10.172Z,10.87
2017-08-19T19:07:37.683Z,11.07
2017-08-19T19:10:05.089Z,10.47
2017-08-19T19:12:32.490Z,11.27
2017-08-19T19:15:00.014Z,11.50
2017-08-19T19:17:27.414Z,11.00
2017-08-19T19:19:54.814Z,11.23
2017-08-19T19:22:22.363Z,10.77
2017-08-19T19:24:49.770Z,12.00
2017-08-19T19:27:17.172Z,10.33
2017-08-19T19:29:44.594Z,12.17
2017-08-19T19:32:11.994Z,12.07
2017-08-19T19:34:39.386Z,11.93
2017-08-19T19:37:06.803Z,13.30
2017-08-19T19:39:34.194Z,13.07
2017-08-19T19:42:01.591Z,11.63
2017-08-19T19:44:29.008Z,12.40
2017-08-19T19:46:56.403Z,11.83
2017-08-19T19:49:23.804Z,12.53
2017-08-19T19:51:51.311Z,13.00
2017-08-19T19:54:18.719Z,12.67
2017-08-19T19:56:46.114Z,13.30
2017-08-19T19:59:13.667Z,13.90
2017-08-19T20:01:41.062Z,13.30
2017-08-19T20:04:08.457Z,14.03
2017-08-19T20:06:36.250Z,13.67
2017-08-19T20:09:03.647Z,13.50
2017-08-19T20:11:31.042Z,13.30
2017-08-19T20:13:58.451Z,13.17
2017-08-19T20:16:25.847Z,13.23
2017-08-19T20:18:53.243Z,13.50
2017-08-19T20:21:20.994Z,13.27
2017-08-19T20:23:48.390Z,13.47
2017-08-19T20:26:15.791Z,13.70
2017-08-19T20:28:43.218Z,15.07
2017-08-19T20:31:10.610Z,14.53
2017-08-19T20:33:38.007Z,15.70
2017-08-19T20:36:05.744Z,15.20
2017-08-19T20:38:33.139Z,13.87
2017-08-19T20:41:00.545Z,15.60
2017-08-19T20:43:28.095Z,15.60
2017-08-19T20:45:55.490Z,12.17
2017-08-19T20:48:22.886Z,14.27
2017-08-19T20:50:50.663Z,14.50
2017-08-19T20:53:18.070Z,15.17
2017-08-19T20:55:45.482Z,14.10
2017-08-19T20:58:12.926Z,14.30
2017-08-19T21:00:40.332Z,13.20
2017-08-19T21:03:07.738Z,14.80
2017-08-19T21:05:35.287Z,14.43
2017-08-19T21:08:02.694Z,14.60
2017-08-19T21:10:30.088Z,12.73
2017-08-19T21:12:57.530Z,14.67
2017-08-19T21:15:24.926Z,13.17
2017-08-19T21:17:52.326Z,13.27
2017-08-19T21:20:19.730Z,13.50
2017-08-19T21:22:47.121Z,13.47
2017-08-19T21:25:14.534Z,12.97
2017-08-19T21:27:42.042Z,13.43
2017-08-19T21:30:09.447Z,13.97
2017-08-19T21:32:36.844Z,13.63
2017-08-19T21:35:04.254Z,13.17
2017-08-19T21:37:31.654Z,14.10
2017-08-19T21:39:59.054Z,12.73
2017-08-19T21:42:26.474Z,12.07
2017-08-19T21:44:53.879Z,12.90
2017-08-19T21:47:21.277Z,13.27
2017-08-19T21:49:48.782Z,13.70
2017-08-19T21:52:16.178Z,12.40
2017-08-19T21:54:43.574Z,13.23
2017-08-19T21:57:10.983Z,13.77
2017-08-19T21:59:38.401Z,13.53
2017-08-19T22:02:05.794Z,13.10
2017-08-19T22:04:33.239Z,13.20
2017-08-19T22:07:00.634Z,12.40
2017-08-19T22:09:28.042Z,13.07
2017-08-19T22:11:55.463Z,13.20
2017-08-19T22:14:22.858Z,12.33
2017-08-19T22:16:50.252Z,13.30
2017-08-19T22:19:17.798Z,12.70
2017-08-19T22:21:45.195Z,13.17
2017-08-19T22:24:12.590Z,12.57
2017-08-19T22:26:40.098Z,13.30
2017-08-19T22:29:07.490Z,13.40
2017-08-19T22:31:34.890Z,13.60
2017-08-19T22:34:02.411Z,13.60
2017-08-19T22:36:32.586Z,12.63
2017-08-19T22:39:00.007Z,14.20
2017-08-19T22:41:27.750Z,13.57
2017-08-19T22:43:55.154Z,12.93
2017-08-19T22:46:22.549Z,13.40
2017-08-19T22:48:50.299Z,12.90
2017-08-19T22:51:17.698Z,11.93
2017-08-19T22:53:45.102Z,12.87
2017-08-19T22:56:12.551Z,13.20
2017-08-19T22:58:39.961Z,13.80
2017-08-19T23:01:07.347Z,14.27
2017-08-19T23:03:35.106Z,13.70
2017-08-19T23:06:02.503Z,13.80
2017-08-19T23:08:29.906Z,12.83
2017-08-19T23:10:57.351Z,13.80
2017-08-19T23:13:24.741Z,14.00
2017-08-19T23:15:52.146Z,13.50
2017-08-19T23:18:19.590Z,13.07
2017-08-19T23:20:46.987Z,14.03
2017-08-19T23:23:14.385Z,14.40
2017-08-19T23:25:41.950Z,14.57
2017-08-19T23:28:09.364Z,13.20
2017-08-19T23:30:36.763Z,14.27
2017-08-19T23:33:04.318Z,13.70
2017-08-19T23:35:31.720Z,13.13
2017-08-19T23:37:59.118Z,13.77
2017-08-19T23:40:26.535Z,13.33
2017-08-19T23:42:53.938Z,13.10
2017-08-19T23:45:21.324Z,13.57
2017-08-19T23:47:48.800Z,13.07
2017-08-19T23:50:16.208Z,13.20
2017-08-19T23:52:43.603Z,13.27
2017-08-19T23:55:11.026Z,13.10
2017-08-19T23:57:38.434Z,13.07
